Time;durP1;ratioP1;P1;durP2;ratioP2;P2;SDS_P1;SDS_P2;PMS_P1;PMS_P2;Temp;Humidity;BMP_temperature;BMP_pressure;BME280_temperature;BME280_humidity;BME280_pressure;Samples;Min_cycle;Max_cycle;Signal;HPM_P1;HPM_P2
2022/06/26 00:01:00;;;;;;;;;1.00;1.00;;;;;17.89;100.00;101002.38;5076920;27;45235;-83
2022/06/26 00:03:26;;;;;;;;;1.00;1.00;;;;;17.74;100.00;100973.31;5076090;28;45571;-83
2022/06/26 00:05:53;;;;;;;;;1.00;1.00;;;;;17.80;100.00;101002.22;5076263;28;45484;-86
2022/06/26 00:08:18;;;;;;;;;1.00;1.00;;;;;17.79;100.00;101006.59;5077008;27;45433;-82
2022/06/26 00:10:46;;;;;;;;;1.00;1.00;;;;;17.77;100.00;101010.91;5079219;28;45615;-82
2022/06/26 00:13:12;;;;;;;;;2.25;1.50;;;;;17.64;100.00;100999.34;5082390;28;46326;-80
2022/06/26 00:15:38;;;;;;;;;1.00;1.00;;;;;17.69;100.00;101004.66;5082144;28;45678;-81
2022/06/26 00:18:04;;;;;;;;;1.00;1.00;;;;;17.45;100.00;100965.78;5077353;27;45453;-81
2022/06/26 00:20:30;;;;;;;;;1.00;1.00;;;;;17.60;100.00;100994.91;5077167;28;45423;-82
2022/06/26 00:22:56;;;;;;;;;1.25;1.25;;;;;17.62;100.00;101002.78;5076130;28;45906;-81
2022/06/26 00:25:22;;;;;;;;;1.50;1.00;;;;;17.70;100.00;101006.44;5076346;28;45359;-85
2022/06/26 00:27:48;;;;;;;;;1.00;1.00;;;;;17.73;100.00;101010.84;5076075;28;45463;-81
2022/06/26 00:30:14;;;;;;;;;1.50;1.50;;;;;17.73;100.00;101003.84;5077635;28;45374;-81
2022/06/26 00:32:40;;;;;;;;;0.75;0.75;;;;;17.62;100.00;100993.19;5085678;27;46722;-81
2022/06/26 00:35:07;;;;;;;;;1.50;1.50;;;;;17.72;100.00;101004.69;5081176;28;44984;-82
2022/06/26 00:37:33;;;;;;;;;2.25;1.00;;;;;17.72;100.00;101007.31;5079242;27;45213;-81
2022/06/26 00:39:58;;;;;;;;;1.00;1.00;;;;;17.62;100.00;100987.97;5077801;28;45536;-83
2022/06/26 00:42:24;;;;;;;;;2.25;2.25;;;;;17.63;100.00;101005.44;5075581;27;46545;-83
2022/06/26 00:44:55;;;;;;;;;3.00;1.75;;;;;17.61;100.00;101004.50;5075840;28;45359;-83
2022/06/26 00:47:22;;;;;;;;;1.75;1.75;;;;;17.35;100.00;100959.53;5057511;28;45342;-84
2022/06/26 00:49:49;;;;;;;;;1.00;1.00;;;;;17.55;100.00;100999.16;5076119;28;45407;-83
2022/06/26 00:52:17;;;;;;;;;2.00;1.00;;;;;17.52;100.00;100988.63;5075962;27;45495;-80
2022/06/26 00:54:42;;;;;;;;;2.00;1.25;;;;;17.39;100.00;100976.16;5079520;27;45260;-80
2022/06/26 00:57:08;;;;;;;;;1.00;1.00;;;;;17.46;100.00;100996.34;5082767;27;45422;-84
2022/06/26 00:59:35;;;;;;;;;2.50;1.00;;;;;17.41;100.00;100996.28;5084795;27;45561;-82
2022/06/26 01:02:01;;;;;;;;;4.00;2.00;;;;;17.47;100.00;101009.50;5083564;27;45279;-80
2022/06/26 01:04:27;;;;;;;;;1.00;1.00;;;;;17.35;100.00;101003.13;5081239;27;45205;-81
2022/06/26 01:06:53;;;;;;;;;1.75;1.75;;;;;17.39;100.00;101015.41;5079507;27;45246;-81
2022/06/26 01:09:19;;;;;;;;;2.75;2.00;;;;;17.41;100.00;101011.09;5079166;28;45449;-85
2022/06/26 01:11:45;;;;;;;;;1.00;1.00;;;;;17.33;100.00;100995.25;5078661;28;45314;-82
2022/06/26 01:14:11;;;;;;;;;2.50;2.00;;;;;17.36;100.00;101008.41;5078477;27;45380;-81
2022/06/26 01:16:39;;;;;;;;;3.00;2.00;;;;;17.24;100.00;100995.94;5079254;27;45465;-81
2022/06/26 01:19:07;;;;;;;;;2.75;1.75;;;;;17.35;100.00;101031.91;5078615;28;45186;-81
2022/06/26 01:21:34;;;;;;;;;3.50;2.75;;;;;17.16;100.00;101005.38;5078578;27;45486;-81
2022/06/26 01:24:00;;;;;;;;;2.75;1.75;;;;;17.16;100.00;101007.97;5079070;28;45754;-84
2022/06/26 01:26:27;;;;;;;;;1.00;1.00;;;;;17.26;100.00;101020.41;5078792;28;45385;-81
2022/06/26 01:28:53;;;;;;;;;5.50;1.50;;;;;17.12;100.00;101007.03;5078756;27;45338;-82
2022/06/26 01:31:19;;;;;;;;;3.00;2.00;;;;;17.06;100.00;101000.78;5078273;28;46283;-80
2022/06/26 01:33:47;;;;;;;;;2.00;2.00;;;;;17.16;100.00;101021.06;5078272;27;45374;-80
2022/06/26 01:36:13;;;;;;;;;2.00;2.00;;;;;16.96;100.00;100994.47;5081167;27;45259;-83
2022/06/26 01:38:38;;;;;;;;;2.00;2.00;;;;;17.15;100.00;101032.38;5085839;27;45202;-83
2022/06/26 01:41:04;;;;;;;;;2.00;2.00;;;;;17.18;100.00;101037.69;5082466;27;46273;-85
2022/06/26 01:43:32;;;;;;;;;2.75;0.75;;;;;17.08;100.00;101022.63;5082804;28;45268;-83
2022/06/26 01:45:59;;;;;;;;;3.00;2.00;;;;;17.10;100.00;101027.03;5082747;28;45329;-84
2022/06/26 01:48:26;;;;;;;;;3.25;3.00;;;;;17.07;100.00;101019.13;5091910;27;45592;-82
2022/06/26 01:50:53;;;;;;;;;1.00;1.00;;;;;17.03;100.00;101022.53;5081929;27;45463;-83
2022/06/26 01:53:19;;;;;;;;;2.00;2.00;;;;;17.19;100.00;101049.91;5078576;27;45805;-84
2022/06/26 01:55:45;;;;;;;;;3.00;1.00;;;;;17.13;100.00;101045.44;5078396;27;45457;-82
2022/06/26 01:58:11;;;;;;;;;3.00;2.25;;;;;17.01;100.00;101024.22;5078109;27;45618;-82
2022/06/26 02:00:38;;;;;;;;;1.25;0.25;;;;;17.10;100.00;101050.59;5077918;28;45789;-80
2022/06/26 02:03:05;;;;;;;;;2.75;2.00;;;;;17.05;100.00;101027.78;5077170;27;45733;-81
2022/06/26 02:05:31;;;;;;;;;3.00;2.00;;;;;16.98;100.00;101024.16;5078636;27;45291;-81
2022/06/26 02:07:57;;;;;;;;;3.00;3.00;;;;;16.98;100.00;101016.31;5079150;27;45462;-82
2022/06/26 02:15:54;;;;;;;;;4.00;1.25;;;;;16.99;100.00;101010.25;5079615;27;45225;-84
2022/06/26 02:18:20;;;;;;;;;3.50;1.00;;;;;16.95;100.00;100997.97;5083866;27;45629;-84
2022/06/26 02:20:46;;;;;;;;;2.00;2.00;;;;;17.05;100.00;101022.56;5082845;27;46106;-83
2022/06/26 02:23:13;;;;;;;;;3.75;2.00;;;;;17.05;100.00;101027.78;5080724;27;45928;-81
2022/06/26 02:25:39;;;;;;;;;2.25;2.25;;;;;17.07;100.00;101031.34;5079108;28;45367;-81
2022/06/26 02:28:05;;;;;;;;;5.50;2.50;;;;;17.21;100.00;101065.63;5077756;27;45551;-79
2022/06/26 02:30:32;;;;;;;;;1.50;1.00;;;;;17.23;100.00;101059.56;5077561;28;45212;-79
2022/06/26 02:32:58;;;;;;;;;2.00;1.50;;;;;17.25;100.00;101055.25;5077632;28;45246;-79
2022/06/26 02:35:25;;;;;;;;;3.75;3.75;;;;;17.32;100.00;101059.81;5059108;28;45261;-83
2022/06/26 02:37:51;;;;;;;;;1.50;1.50;;;;;17.33;100.00;101055.44;5083139;27;45334;-79
2022/06/26 02:40:19;;;;;;;;;2.50;2.50;;;;;17.33;100.00;101055.44;5084017;28;45383;-81
2022/06/26 02:42:45;;;;;;;;;2.00;1.00;;;;;17.39;100.00;101050.31;5077567;27;45188;-84
2022/06/26 02:45:11;;;;;;;;;0.00;0.00;;;;;17.41;100.00;101043.38;5077326;27;45414;-81
2022/06/26 02:47:36;;;;;;;;;3.00;2.00;;;;;17.36;100.00;101031.06;5077707;28;45608;-81
2022/06/26 02:50:03;;;;;;;;;2.00;2.00;;;;;17.32;100.00;101035.34;5076646;27;46354;-81
2022/06/26 02:52:29;;;;;;;;;2.75;1.75;;;;;17.26;100.00;101015.16;5077561;27;45696;-83
2022/06/26 02:54:55;;;;;;;;;3.00;3.00;;;;;17.40;100.00;101035.50;5077142;27;45338;-81
2022/06/26 02:57:20;;;;;;;;;1.75;1.75;;;;;17.33;100.00;101026.66;5080126;28;45457;-82
2022/06/26 02:59:46;;;;;;;;;2.25;2.25;;;;;17.39;100.00;101037.22;5085106;28;45371;-83
2022/06/26 03:02:12;;;;;;;;;2.00;2.00;;;;;17.49;100.00;101054.00;5081665;27;45421;-83
2022/06/26 03:04:37;;;;;;;;;2.00;2.00;;;;;17.37;100.00;101048.53;5078548;28;45397;-81
2022/06/26 03:07:03;;;;;;;;;3.00;2.50;;;;;17.48;100.00;101070.56;5077000;27;45534;-81
2022/06/26 03:09:29;;;;;;;;;2.75;2.75;;;;;17.38;100.00;101056.44;5077081;27;46107;-80
2022/06/26 03:11:55;;;;;;;;;2.00;2.00;;;;;17.36;100.00;101046.75;5076881;28;45390;-83
2022/06/26 03:14:20;;;;;;;;;3.00;3.00;;;;;17.50;100.00;101071.50;5076566;28;45246;-84
2022/06/26 03:16:46;;;;;;;;;1.25;1.00;;;;;17.52;100.00;101068.91;5077568;28;45346;-86
2022/06/26 03:19:12;;;;;;;;;3.75;2.00;;;;;17.52;100.00;101076.75;5077014;28;46002;-88
2022/06/26 03:21:38;;;;;;;;;2.25;2.00;;;;;17.49;100.00;101065.34;5078244;27;45219;-86
2022/06/26 03:24:04;;;;;;;;;3.00;2.00;;;;;17.45;100.00;101063.53;5078181;28;45244;-85
2022/06/26 03:26:34;;;;;;;;;3.00;1.50;;;;;17.51;100.00;101073.25;5079164;27;45438;-81
2022/06/26 03:29:00;;;;;;;;;2.50;2.00;;;;;17.47;100.00;101074.03;5078375;27;46412;-80
2022/06/26 03:31:28;;;;;;;;;1.50;1.00;;;;;17.45;100.00;101074.00;5076512;27;45177;-80
2022/06/26 03:33:55;;;;;;;;;1.75;1.75;;;;;17.44;100.00;101077.47;5076821;27;45294;-84
2022/06/26 03:36:22;;;;;;;;;3.50;2.00;;;;;17.45;100.00;101080.97;5076940;28;45516;-87
2022/06/26 03:38:48;;;;;;;;;3.00;3.00;;;;;17.45;100.00;101080.97;5080686;28;45400;-84
2022/06/26 03:41:14;;;;;;;;;2.75;1.75;;;;;17.30;100.00;101071.06;5082664;28;45735;-82
2022/06/26 03:43:40;;;;;;;;;5.00;2.00;;;;;17.41;100.00;101087.88;5063528;28;45295;-84
2022/06/26 03:46:06;;;;;;;;;2.75;2.00;;;;;17.38;100.00;101079.09;5081059;28;45351;-81
2022/06/26 03:48:31;;;;;;;;;2.50;1.25;;;;;17.36;100.00;101068.59;5078792;28;46124;-81
2022/06/26 03:50:57;;;;;;;;;1.00;1.00;;;;;17.43;100.00;101075.72;5077735;28;45336;-84
2022/06/26 03:53:24;;;;;;;;;2.50;2.00;;;;;17.39;100.00;101076.50;5076577;27;45216;-82
2022/06/26 03:55:50;;;;;;;;;2.00;2.00;;;;;17.39;100.00;101068.63;5077432;28;45280;-80
2022/06/26 03:58:15;;;;;;;;;1.00;1.00;;;;;17.41;100.00;101072.19;5076857;28;46415;-81
2022/06/26 04:00:41;;;;;;;;;3.25;2.00;;;;;17.32;100.00;101059.81;5058233;28;45433;-83
2022/06/26 04:03:08;;;;;;;;;2.00;2.00;;;;;17.47;100.00;101084.50;5076241;28;45470;-82
2022/06/26 04:05:35;;;;;;;;;1.00;1.00;;;;;17.50;100.00;101087.19;5076483;27;45366;-82
2022/06/26 04:08:01;;;;;;;;;2.75;1.75;;;;;17.52;100.00;101085.50;5076457;28;46206;-85
2022/06/26 04:10:27;;;;;;;;;3.00;2.00;;;;;17.47;100.00;101082.78;5075297;27;45381;-83
2022/06/26 04:12:53;;;;;;;;;3.00;3.00;;;;;17.52;100.00;101095.06;5058017;28;45327;-84
2022/06/26 04:15:19;;;;;;;;;2.00;2.00;;;;;17.52;100.00;101098.59;5075886;28;45584;-84
2022/06/26 04:17:45;;;;;;;;;4.00;2.00;;;;;17.51;100.00;101102.06;5075960;28;45435;-84
2022/06/26 04:20:12;;;;;;;;;3.50;2.50;;;;;17.54;100.00;101106.47;5081736;28;45731;-85
2022/06/26 04:22:37;;;;;;;;;3.75;2.25;;;;;17.32;100.00;101071.97;5083717;27;45423;-81
2022/06/26 04:25:04;;;;;;;;;4.00;2.00;;;;;17.51;100.00;101127.34;5078983;27;45466;-79
2022/06/26 04:27:30;;;;;;;;;2.75;2.00;;;;;17.46;100.00;101108.91;5079131;28;45571;-80
2022/06/26 04:29:55;;;;;;;;;3.25;2.00;;;;;17.44;100.00;101118.50;5079804;28;45359;-82
2022/06/26 04:32:21;;;;;;;;;1.50;1.50;;;;;17.46;100.00;101122.00;5079938;27;45307;-82
2022/06/26 04:34:46;;;;;;;;;2.00;1.75;;;;;17.29;100.00;101091.13;5062061;28;45549;-80
2022/06/26 04:37:12;;;;;;;;;4.25;1.25;;;;;17.39;100.00;101115.75;5084610;27;46252;-81
2022/06/26 04:39:38;;;;;;;;;3.00;1.75;;;;;17.44;100.00;101129.84;5095667;27;45229;-79
2022/06/26 04:42:04;;;;;;;;;2.00;1.50;;;;;17.37;100.00;101117.47;5082387;28;45418;-79
2022/06/26 04:44:29;;;;;;;;;3.00;2.00;;;;;17.51;100.00;101132.56;5097902;27;45133;-79
2022/06/26 04:46:55;;;;;;;;;1.00;1.00;;;;;17.55;100.00;101144.88;5085919;28;45317;-81
2022/06/26 04:49:20;;;;;;;;;2.00;2.00;;;;;17.41;100.00;101118.41;5080807;28;45358;-89
2022/06/26 04:51:46;;;;;;;;;2.00;2.00;;;;;17.51;100.00;101133.47;5080124;27;45252;-87
2022/06/26 04:54:12;;;;;;;;;4.50;2.00;;;;;17.42;100.00;101130.66;5080564;28;45504;-89
2022/06/26 04:56:38;;;;;;;;;1.50;1.50;;;;;17.33;100.00;101113.88;5081010;27;45961;-88
2022/06/26 04:59:05;;;;;;;;;3.25;3.00;;;;;17.58;100.00;101161.53;5080199;28;45327;-88
2022/06/26 05:01:31;;;;;;;;;2.25;2.00;;;;;17.59;100.00;101150.22;5087372;28;45324;-88
2022/06/26 05:03:58;;;;;;;;;3.00;2.00;;;;;17.48;100.00;101147.38;5084018;27;45315;-79
2022/06/26 05:06:24;;;;;;;;;4.00;2.75;;;;;17.62;100.00;101160.75;5079368;27;45379;-79
2022/06/26 05:08:50;;;;;;;;;3.75;2.00;;;;;17.63;100.00;101149.44;5079588;28;45765;-80
2022/06/26 05:11:15;;;;;;;;;2.00;2.00;;;;;17.64;100.00;101148.59;5078622;27;45454;-79
2022/06/26 05:13:41;;;;;;;;;6.25;3.00;;;;;17.57;100.00;101137.94;5078812;28;45329;-80
2022/06/26 05:16:07;;;;;;;;;4.50;2.00;;;;;17.66;100.00;101153.84;5077894;28;46419;-79
2022/06/26 05:18:33;;;;;;;;;2.00;2.00;;;;;17.72;100.00;101166.19;5078629;28;45486;-81
2022/06/26 05:20:58;;;;;;;;;3.50;2.00;;;;;17.78;100.00;101174.16;5078949;28;45338;-80
2022/06/26 05:23:24;;;;;;;;;2.00;2.00;;;;;17.73;100.00;101166.22;5078390;28;45633;-80
2022/06/26 05:25:51;;;;;;;;;1.75;1.75;;;;;17.71;100.00;101157.44;5078285;28;45339;-78
2022/06/26 05:28:17;;;;;;;;;3.50;2.25;;;;;17.83;100.00;101162.06;5060019;28;45654;-81
2022/06/26 05:30:43;;;;;;;;;1.75;1.75;;;;;17.73;100.00;101141.78;5078591;28;45247;-79
2022/06/26 05:33:09;;;;;;;;;2.00;2.00;;;;;17.88;100.00;101163.03;5078483;28;45534;-80
2022/06/26 05:35:35;;;;;;;;;2.00;2.00;;;;;17.90;100.00;101155.22;5078174;27;45379;-79
2022/06/26 05:38:01;;;;;;;;;3.00;2.00;;;;;17.88;100.00;101154.28;5078537;28;45410;-80
2022/06/26 05:40:26;;;;;;;;;3.00;2.50;;;;;17.98;100.00;101171.13;5077696;27;45414;-82
2022/06/26 05:42:56;;;;;;;;;3.25;1.75;;;;;17.94;100.00;101162.25;5086219;28;45430;-81
2022/06/26 05:45:22;;;;;;;;;3.25;2.50;;;;;17.95;100.00;101158.78;5083791;28;45213;-79
2022/06/26 05:47:48;;;;;;;;;3.75;2.00;;;;;17.93;100.00;101150.00;5080955;28;45297;-79
2022/06/26 05:50:13;;;;;;;;;2.50;2.50;;;;;18.01;100.00;101173.78;5078835;27;45313;-80
2022/06/26 05:52:39;;;;;;;;;1.00;1.00;;;;;17.92;100.00;101154.38;5079005;27;45510;-79
2022/06/26 05:55:05;;;;;;;;;2.00;2.00;;;;;18.03;100.00;101161.59;5059480;28;47998;-80
2022/06/26 05:57:31;;;;;;;;;3.00;1.75;;;;;17.93;100.00;101142.16;5062655;28;45468;-84
2022/06/26 05:59:57;;;;;;;;;3.25;2.25;;;;;17.98;98.30;101152.78;5060627;28;45480;-79
2022/06/26 06:02:23;;;;;;;;;3.00;2.00;;;;;18.11;96.96;101180.97;5077849;27;45317;-80
2022/06/26 06:04:49;;;;;;;;;2.75;2.00;;;;;18.04;96.17;101166.88;5077680;28;45336;-81
2022/06/26 06:07:14;;;;;;;;;4.00;2.50;;;;;18.08;95.03;101178.31;5060077;28;45553;-86
2022/06/26 06:09:40;;;;;;;;;1.00;1.00;;;;;18.11;94.29;101183.59;5089090;27;45275;-85
2022/06/26 06:12:06;;;;;;;;;2.00;2.00;;;;;18.03;93.58;101165.09;5077470;27;45395;-87
2022/06/26 06:14:31;;;;;;;;;4.75;2.00;;;;;18.14;93.34;101188.03;5081790;27;46599;-83
2022/06/26 06:16:57;;;;;;;;;1.25;1.00;;;;;18.16;92.80;101194.16;5090700;27;45184;-78
2022/06/26 06:19:23;;;;;;;;;1.00;1.00;;;;;18.14;91.63;101194.16;5090548;27;45335;-79
2022/06/26 06:21:48;;;;;;;;;1.00;1.00;;;;;18.16;91.82;101196.78;5091201;27;47066;-81
2022/06/26 06:24:14;;;;;;;;;2.00;1.00;;;;;18.23;90.95;101196.06;5104421;27;45515;-88
2022/06/26 06:26:40;;;;;;;;;2.00;1.00;;;;;18.26;90.54;101196.09;5084991;27;45280;-76
2022/06/26 06:29:06;;;;;;;;;1.00;1.00;;;;;18.32;90.36;101200.59;5084348;27;45348;-78
2022/06/26 06:31:32;;;;;;;;;1.75;1.00;;;;;18.30;90.40;101194.47;5087553;27;45541;-80
2022/06/26 06:33:57;;;;;;;;;1.50;1.25;;;;;18.31;90.76;101197.09;5098214;27;45334;-79
2022/06/26 06:36:23;;;;;;;;;4.00;2.00;;;;;18.31;89.88;101197.09;5084365;27;45523;-86
2022/06/26 06:38:48;;;;;;;;;2.25;1.00;;;;;18.32;89.94;101192.72;5104295;27;45393;-90
2022/06/26 06:41:14;;;;;;;;;3.00;1.75;;;;;18.36;90.11;101205.91;5098495;27;45477;-89
2022/06/26 06:43:40;;;;;;;;;2.25;2.25;;;;;18.35;89.51;101203.28;5086205;27;46210;-78
2022/06/26 06:46:05;;;;;;;;;1.50;1.50;;;;;18.43;89.36;101213.91;5095538;27;45354;-78
2022/06/26 06:48:31;;;;;;;;;3.00;2.50;;;;;18.44;89.58;101213.94;5086326;27;45378;-81
2022/06/26 06:50:56;;;;;;;;;1.00;1.00;;;;;18.39;88.52;101200.75;5085208;27;45567;-80
2022/06/26 06:53:22;;;;;;;;;1.00;1.00;;;;;18.49;87.92;101212.28;5061956;28;46568;-80
2022/06/26 06:55:48;;;;;;;;;5.25;3.00;;;;;18.52;87.01;101216.69;5077276;27;45173;-82
2022/06/26 06:58:14;;;;;;;;;2.75;1.75;;;;;18.48;86.93;101200.03;5090262;27;45497;-77
2022/06/26 07:00:40;;;;;;;;;2.25;2.25;;;;;18.60;87.51;101217.72;5093017;27;45558;-76
2022/06/26 07:03:06;;;;;;;;;3.00;1.00;;;;;18.60;86.07;101212.47;5084093;27;45449;-80
2022/06/26 07:05:33;;;;;;;;;2.00;1.25;;;;;18.59;84.98;101184.47;5086721;27;45493;-84
2022/06/26 07:08:00;;;;;;;;;2.00;2.00;;;;;18.77;85.09;101209.28;5073380;28;45480;-78
2022/06/26 07:10:26;;;;;;;;;2.25;2.00;;;;;18.78;84.78;101221.56;5077655;27;45315;-83
2022/06/26 07:12:56;;;;;;;;;1.75;1.75;;;;;18.81;83.88;101225.09;5080263;27;45620;-78
2022/06/26 07:15:23;;;;;;;;;2.50;1.25;;;;;18.78;81.76;101218.94;5080077;27;45737;-82
2022/06/26 07:17:48;;;;;;;;;4.00;2.00;;;;;18.83;80.60;101225.13;5081448;27;45477;-80
2022/06/26 07:20:15;;;;;;;;;2.25;2.00;;;;;18.81;80.27;101225.09;5080383;27;45525;-82
2022/06/26 07:22:40;;;;;;;;;6.25;5.75;;;;;18.82;79.70;101226.88;5085500;27;46476;-81
2022/06/26 07:25:06;;;;;;;;;6.25;5.00;;;;;18.93;79.80;101245.44;5076140;27;45371;-83
2022/06/26 07:27:32;;;;;;;;;2.00;2.00;;;;;18.94;79.03;101236.72;5082741;27;45478;-79
2022/06/26 07:29:58;;;;;;;;;1.00;1.00;;;;;19.00;77.71;101251.69;5076636;27;45189;-80
2022/06/26 07:32:23;;;;;;;;;3.00;1.50;;;;;19.02;78.84;101249.97;5076589;27;45485;-82
2022/06/26 07:34:49;;;;;;;;;2.75;2.00;;;;;19.10;78.56;101260.59;5081883;27;45224;-84
2022/06/26 07:37:15;;;;;;;;;1.00;1.00;;;;;19.17;75.46;101265.09;5057796;28;45377;-81
2022/06/26 07:39:40;;;;;;;;;0.75;0.75;;;;;19.18;74.98;101266.84;5076743;28;45442;-83
2022/06/26 07:42:06;;;;;;;;;1.00;1.00;;;;;19.22;75.31;101276.53;5076581;28;45452;-84
2022/06/26 07:44:32;;;;;;;;;1.00;1.00;;;;;19.23;73.34;101270.44;5076150;28;45378;-79
2022/06/26 07:46:58;;;;;;;;;1.00;1.00;;;;;19.25;72.21;101273.97;5082100;28;45331;-79
2022/06/26 07:49:24;;;;;;;;;0.25;0.00;;;;;19.29;72.33;101274.91;5081425;28;45387;-78
2022/06/26 07:51:50;;;;;;;;;2.00;2.00;;;;;19.27;71.64;101272.25;5076393;28;45450;-78
2022/06/26 07:54:15;;;;;;;;;4.00;1.25;;;;;19.28;71.47;101271.41;5076135;28;45852;-78
2022/06/26 07:56:41;;;;;;;;;2.50;1.50;;;;;19.32;70.50;101274.97;5076217;28;45227;-79
2022/06/26 07:59:07;;;;;;;;;2.25;1.25;;;;;19.37;70.71;101277.66;5072492;27;45531;-80
2022/06/26 08:01:33;;;;;;;;;2.50;2.00;;;;;19.36;70.78;101263.66;5081098;27;45922;-78
2022/06/26 08:03:59;;;;;;;;;2.00;2.00;;;;;19.45;70.10;101273.41;5090556;27;45182;-78
2022/06/26 08:06:25;;;;;;;;;2.00;1.00;;;;;19.50;69.07;101266.50;5045251;28;45399;-79
2022/06/26 08:08:52;;;;;;;;;0.50;0.50;;;;;19.48;70.55;101250.72;5080836;28;45503;-86
2022/06/26 08:11:18;;;;;;;;;0.75;0.00;;;;;19.53;70.41;101258.66;5080164;27;46180;-85
2022/06/26 08:13:44;;;;;;;;;1.50;1.50;;;;;19.55;69.33;101256.91;5080984;28;45418;-86
2022/06/26 08:16:10;;;;;;;;;1.00;1.00;;;;;19.53;69.73;101249.88;5061380;28;45516;-85
2022/06/26 08:18:35;;;;;;;;;2.00;2.00;;;;;19.53;69.74;101253.41;5099377;27;45428;-84
2022/06/26 08:22:00;;;;;;;;;1.25;1.25;;;;;19.59;68.96;101264.00;5100473;27;46411;-83
2022/06/26 08:23:47;;;;;;;;;1.00;1.00;;;;;19.61;68.65;101257.03;5100423;27;45242;-85
2022/06/26 08:26:13;;;;;;;;;2.00;2.00;;;;;19.60;69.21;101259.63;5086637;27;45462;-81
2022/06/26 08:28:38;;;;;;;;;1.00;1.00;;;;;19.61;65.30;101259.66;5082577;27;45484;-79
2022/06/26 08:31:04;;;;;;;;;0.75;0.75;;;;;19.63;65.99;101260.56;5064615;28;46791;-85
2022/06/26 08:33:30;;;;;;;;;3.25;2.00;;;;;19.64;64.84;101253.56;5088618;27;45532;-84
2022/06/26 08:35:55;;;;;;;;;1.00;1.00;;;;;19.71;64.07;101255.41;5087420;27;45539;-85
2022/06/26 08:38:21;;;;;;;;;1.00;1.00;;;;;19.75;63.95;101259.84;5080279;27;45256;-83
2022/06/26 08:40:47;;;;;;;;;1.75;1.00;;;;;19.77;63.37;101247.63;5080510;27;45406;-82
2022/06/26 08:43:13;;;;;;;;;1.25;1.00;;;;;19.79;62.77;101256.41;5083860;27;45478;-82
2022/06/26 08:45:40;;;;;;;;;3.50;1.00;;;;;19.80;63.02;101257.28;5074425;28;45386;-83
2022/06/26 08:48:09;;;;;;;;;3.00;1.00;;;;;19.78;62.62;101252.00;5082596;27;45509;-82
2022/06/26 08:50:34;;;;;;;;;2.00;2.00;;;;;19.87;63.23;101260.91;5060291;28;47239;-82
2022/06/26 08:53:01;;;;;;;;;3.00;2.75;;;;;19.97;63.43;101261.94;5081120;28;45272;-79
2022/06/26 08:55:28;;;;;;;;;2.00;2.00;;;;;20.11;63.25;101270.84;5070936;27;45796;-80
2022/06/26 08:57:54;;;;;;;;;3.50;2.50;;;;;20.17;63.06;101247.28;5080769;27;45357;-83
2022/06/26 09:00:19;;;;;;;;;2.00;1.00;;;;;20.35;61.91;101246.63;5078852;28;46114;-83
2022/06/26 09:02:46;;;;;;;;;2.50;2.00;;;;;20.45;61.90;101252.84;5081134;27;45364;-82
2022/06/26 09:05:12;;;;;;;;;4.50;4.00;;;;;20.46;61.98;101230.94;5078070;28;45415;-79
2022/06/26 09:07:52;;;;;;;;;13.25;12.00;;;;;20.63;62.07;101246.00;5078737;28;45347;-78
2022/06/26 09:10:18;;;;;;;;;2.75;2.00;;;;;20.65;60.95;101229.41;5077610;28;46046;-81
2022/06/26 09:12:54;;;;;;;;;3.00;3.00;;;;;20.76;59.51;101231.28;5080708;27;45717;-79
2022/06/26 09:15:21;;;;;;;;;3.00;2.50;;;;;20.78;59.87;101229.56;5085002;27;45193;-79
2022/06/26 09:17:59;;;;;;;;;1.00;1.00;;;;;20.80;58.58;101233.94;5082044;28;45713;-83
2022/06/26 09:20:25;;;;;;;;;4.00;2.00;;;;;20.85;57.72;101228.72;5079071;28;45494;-81
2022/06/26 09:22:59;;;;;;;;;1.00;1.00;;;;;20.86;56.98;101223.47;5078721;27;45478;-81
2022/06/26 09:25:39;;;;;;;;;1.00;1.00;;;;;20.88;56.18;101226.13;5077905;28;45211;-79
2022/06/26 09:28:25;;;;;;;;;0.25;0.25;;;;;20.90;56.27;101227.00;5059840;28;45492;-80
2022/06/26 09:31:04;;;;;;;;;1.00;0.75;;;;;20.89;55.70;101220.00;5077598;27;45406;-78
2022/06/26 09:33:36;;;;;;;;;0.75;0.75;;;;;20.91;54.84;101215.59;5079621;28;45807;-79
2022/06/26 09:36:04;;;;;;;;;0.00;0.00;;;;;20.90;53.29;101215.59;5060271;28;45387;-79
2022/06/26 09:38:34;;;;;;;;;0.00;0.00;;;;;20.92;53.21;101222.63;5078521;28;45442;-78
2022/06/26 09:41:01;;;;;;;;;2.00;1.00;;;;;20.90;53.16;101219.09;5078076;28;45252;-81
2022/06/26 09:43:29;;;;;;;;;1.25;1.25;;;;;20.91;52.34;101222.63;5078102;27;45232;-81
2022/06/26 09:45:58;;;;;;;;;3.50;1.25;;;;;20.93;52.56;101227.03;5078240;27;45223;-79
2022/06/26 09:48:24;;;;;;;;;2.50;1.00;;;;;20.91;50.96;101225.28;5078273;28;45600;-85
2022/06/26 09:50:50;;;;;;;;;1.00;1.00;;;;;20.86;50.18;101228.72;5078188;27;46162;-85
2022/06/26 09:53:18;;;;;;;;;1.00;1.00;;;;;20.69;51.17;101204.84;5078577;27;45708;-82
2022/06/26 09:55:45;;;;;;;;;1.00;1.00;;;;;20.73;50.72;101203.16;5079369;28;45233;-86
2022/06/26 09:58:12;;;;;;;;;1.75;0.75;;;;;20.81;50.83;101213.78;5080015;27;45398;-79
2022/06/26 10:00:39;;;;;;;;;2.25;0.75;;;;;20.70;50.66;101204.00;5084113;28;46139;-84
2022/06/26 10:09:00;;;;;;;;;1.75;1.50;;;;;20.83;48.47;101220.84;5016419;28;45273;-79
2022/06/26 10:11:27;;;;;;;;;1.75;1.75;;;;;20.80;50.27;101212.91;5015901;28;45470;-79
2022/06/26 10:14:02;;;;;;;;;5.00;2.75;;;;;20.79;50.38;101215.50;5046766;28;45436;-84
2022/06/26 10:16:49;;;;;;;;;3.50;1.75;;;;;20.81;50.94;101213.78;5078625;28;45382;-80
2022/06/26 10:19:52;;;;;;;;;2.25;1.00;;;;;20.83;49.52;101205.03;5077811;27;45313;-79
2022/06/26 10:22:19;;;;;;;;;3.00;1.00;;;;;20.80;50.05;101201.47;5079374;27;45596;-80
2022/06/26 10:24:56;;;;;;;;;1.50;1.50;;;;;20.78;51.19;101201.47;5092632;27;45739;-84
2022/06/26 10:27:26;;;;;;;;;2.25;1.00;;;;;20.81;48.33;101208.50;5057838;28;45488;-85
2022/06/26 10:30:06;;;;;;;;;2.00;1.50;;;;;20.79;47.42;101205.88;5057609;28;45836;-84
2022/06/26 10:32:33;;;;;;;;;1.25;1.00;;;;;20.64;47.34;101184.63;5057616;28;46277;-81
2022/06/26 10:34:59;;;;;;;;;1.00;1.00;;;;;20.69;46.93;101191.69;5075512;27;45709;-87
2022/06/26 10:37:25;;;;;;;;;5.00;2.50;;;;;20.65;47.68;101199.56;5078591;27;45241;-82
2022/06/26 10:39:53;;;;;;;;;1.00;1.00;;;;;20.69;47.45;101215.38;5077684;27;45477;-81
2022/06/26 10:45:31;;;;;;;;;4.00;3.00;;;;;20.62;47.86;101213.56;5085487;27;45613;-83
2022/06/26 10:47:59;;;;;;;;;0.50;0.50;;;;;20.64;48.30;101210.94;5080914;27;45965;-82
2022/06/26 10:50:35;;;;;;;;;11.00;9.25;;;;;20.52;49.12;101185.41;5080011;28;45244;-86
2022/06/26 10:53:25;;;;;;;;;8.00;6.00;;;;;20.68;49.62;101211.00;5080524;28;45202;-80
2022/06/26 10:55:52;;;;;;;;;2.00;2.00;;;;;20.77;48.72;101214.63;5080594;27;45334;-81
2022/06/26 10:58:28;;;;;;;;;1.00;1.00;;;;;20.76;47.68;101190.03;5079702;27;45352;-84
2022/06/26 11:00:58;;;;;;;;;2.00;0.00;;;;;20.89;45.60;101209.47;5097671;27;45357;-79
2022/06/26 11:03:24;;;;;;;;;1.00;1.00;;;;;20.93;45.04;101208.63;5081987;27;45224;-81
2022/06/26 11:06:10;;;;;;;;;3.25;2.00;;;;;20.99;45.73;101211.31;5063730;28;45648;-84
2022/06/26 11:08:47;;;;;;;;;2.00;2.00;;;;;20.98;44.77;101199.03;5066424;27;45741;-85
2022/06/26 11:11:17;;;;;;;;;2.50;1.50;;;;;20.98;45.34;101196.38;5041894;28;45614;-84
2022/06/26 11:14:06;;;;;;;;;1.25;1.25;;;;;21.00;45.33;101181.47;5047180;27;46943;-85
2022/06/26 11:16:44;;;;;;;;;1.25;1.25;;;;;21.16;45.75;101192.13;5099566;27;45525;-79
2022/06/26 11:19:29;;;;;;;;;2.00;2.00;;;;;21.44;45.56;101187.91;5099332;27;45311;-87
2022/06/26 11:22:09;;;;;;;;;2.00;2.00;;;;;21.59;45.29;101191.53;5091014;27;45540;-92
2022/06/26 11:24:36;;;;;;;;;3.75;1.00;;;;;21.63;44.91;101172.22;5080802;27;46278;-81
2022/06/26 11:27:02;;;;;;;;;2.50;2.00;;;;;21.77;44.38;101167.91;5084634;28;45274;-86
2022/06/26 11:29:28;;;;;;;;;5.75;4.00;;;;;21.83;43.46;101158.25;5082419;27;45593;-83
2022/06/26 11:31:54;;;;;;;;;5.25;2.00;;;;;22.00;43.33;101184.66;5104586;27;45244;-79
2022/06/26 11:34:20;;;;;;;;;1.00;1.00;;;;;22.05;43.77;101182.94;5094078;27;46246;-84
2022/06/26 11:36:50;;;;;;;;;3.00;1.00;;;;;22.08;43.56;101180.31;5088817;27;45209;-81